Manor, Delaware
Current Conditions -  °F | °C
As of 1:51 PM on Thursday 23 Oct 2014 (Local Time) from KILG Reporting Station
Overcast Overcast  
Wind Chill: 58°   Ceiling: 3100
Heat Index: 58°   Visibility: 10mi
Dew Point: 46°   Wind: 21mph
Humidity: 65%   Direction: 320°NW
Pressure: 29.8"   Gusts: 28mph
Location:  39.6483°N, 75.6041°W
Report Text: KILG 231751Z 32018G24KT 10SM OVC031 14/08 A2980 RMK AO2 PK WND 32027/1735 SLP090 60001 T01440078 10144 20106 58005
Loading
Personal Weather Stations






























Interactive Weather Map
Tropical Storm Tracking
New forecast layout! Learn more

10-Day Weather Forecast

Advertisements
Track Severe Weather on mobile